createdAt,value
2018-04-25T00:00:05.403Z,18.53
2018-04-25T00:05:56.088Z,14.93
2018-04-25T00:11:46.750Z,18.14
2018-04-25T00:17:37.450Z,12.99
2018-04-25T00:23:28.154Z,16.73
2018-04-25T00:29:18.790Z,17.23
2018-04-25T00:35:09.496Z,13.69
2018-04-25T00:41:00.177Z,12.46
2018-04-25T00:46:50.892Z,14.73
2018-04-25T00:52:41.579Z,22.35
2018-04-25T00:58:32.251Z,16.34
2018-04-25T01:04:22.943Z,21.71
2018-04-25T01:10:13.654Z,16.53
2018-04-25T01:16:04.293Z,11.66
2018-04-25T01:21:54.980Z,16.02
2018-04-25T01:27:45.692Z,15.39
2018-04-25T01:33:36.333Z,13.77
2018-04-25T01:39:27.122Z,17.1
2018-04-25T01:45:17.737Z,11.68
2018-04-25T01:51:08.400Z,13.06
2018-04-25T01:56:59.079Z,16.71
2018-04-25T02:02:49.744Z,15.23
2018-04-25T02:08:40.417Z,11.68
2018-04-25T02:14:31.091Z,19.26
2018-04-25T02:20:21.801Z,10.16
2018-04-25T02:26:12.447Z,12.7
2018-04-25T02:32:03.169Z,11.26
2018-04-25T02:37:53.901Z,26.9
2018-04-25T02:43:44.526Z,20.07
2018-04-25T02:49:35.179Z,25.91
2018-04-25T02:55:25.878Z,22.24
2018-04-25T03:01:16.595Z,20.55
2018-04-25T03:07:07.262Z,15.06
2018-04-25T03:12:57.884Z,38.58
2018-04-25T03:18:48.587Z,48.76
2018-04-25T03:24:39.299Z,26.45
2018-04-25T03:30:29.962Z,37.59
2018-04-25T03:36:20.617Z,22.78
2018-04-25T03:42:11.290Z,17.41
2018-04-25T03:48:01.980Z,15.51
2018-04-25T03:53:52.603Z,20.8
2018-04-25T03:59:43.280Z,15.78
2018-04-25T04:05:33.984Z,14.48
2018-04-25T04:11:24.625Z,11.16
2018-04-25T04:17:15.280Z,15.21
2018-04-25T04:23:06.031Z,11.48
2018-04-25T04:28:56.651Z,11
2018-04-25T04:34:47.324Z,18.47
2018-04-25T04:40:37.989Z,11.54
2018-04-25T04:46:28.653Z,13.93
2018-04-25T04:52:19.379Z,11.65
2018-04-25T04:58:10.048Z,15.97
2018-04-25T05:04:00.701Z,13.74
2018-04-25T05:09:51.360Z,17.45
2018-04-25T05:15:42.035Z,12.89
2018-04-25T05:21:32.723Z,18.54
2018-04-25T05:27:23.395Z,15.96
2018-04-25T05:33:14.095Z,43.21
2018-04-25T05:39:04.751Z,39.53
2018-04-25T05:44:55.417Z,54.33
2018-04-25T05:50:46.071Z,26.06
2018-04-25T05:56:36.754Z,38.99
2018-04-25T06:02:27.459Z,27.3
2018-04-25T06:08:18.125Z,30.81
2018-04-25T06:14:08.820Z,29.86
2018-04-25T06:19:59.455Z,24
2018-04-25T06:25:50.154Z,35.46
2018-04-25T06:31:40.884Z,29.41
2018-04-25T06:37:31.471Z,22.83
2018-04-25T06:43:22.222Z,28.18
2018-04-25T06:49:12.875Z,32.05
2018-04-25T06:55:03.556Z,31.56
2018-04-25T07:00:54.228Z,34.53
2018-04-25T07:06:44.916Z,36.53
2018-04-25T07:12:35.567Z,41.58
2018-04-25T07:18:26.232Z,54.24
2018-04-25T07:24:16.927Z,43.92
2018-04-25T07:30:07.599Z,37.58
2018-04-25T07:35:58.309Z,36.41
2018-04-25T07:41:49.089Z,38.42
2018-04-25T07:47:39.689Z,42.51
2018-04-25T07:53:30.350Z,42.17
2018-04-25T07:59:21.075Z,34.5
2018-04-25T08:05:11.754Z,40.21
2018-04-25T08:11:02.490Z,31.56
2018-04-25T08:16:53.186Z,27.08
2018-04-25T08:22:43.848Z,25.14
2018-04-25T08:28:34.583Z,31.04
2018-04-25T08:34:25.412Z,24.42
2018-04-25T08:40:15.963Z,13.59
2018-04-25T08:46:06.649Z,13.36
2018-04-25T08:51:57.412Z,17.66
2018-04-25T08:57:48.093Z,14.84
2018-04-25T09:03:38.799Z,12.72
2018-04-25T09:09:29.507Z,20.94
2018-04-25T09:15:20.265Z,13.47
2018-04-25T09:27:01.706Z,14.25
2018-04-25T09:32:52.408Z,11.33
2018-04-25T09:38:43.171Z,13.89
2018-04-25T09:44:33.854Z,19.66
2018-04-25T09:50:24.617Z,12.91
2018-04-25T09:56:15.353Z,11.98
2018-04-25T10:02:06.041Z,14.07
2018-04-25T10:07:56.797Z,14.55
2018-04-25T10:13:47.534Z,12.88
2018-04-25T10:19:38.311Z,14.83
2018-04-25T10:25:28.968Z,11.54
2018-04-25T10:31:19.722Z,15.65
2018-04-25T10:37:10.472Z,13.56
2018-04-25T10:43:01.267Z,18.39
2018-04-25T10:48:51.987Z,16.14
2018-04-25T10:54:42.725Z,15.27
2018-04-25T11:00:33.455Z,11.5
2018-04-25T11:06:24.285Z,14.95
2018-04-25T11:12:14.937Z,13.74
2018-04-25T11:18:16.440Z,17.1
2018-04-25T11:23:56.499Z,18.85
2018-04-25T11:29:47.317Z,14.24
2018-04-25T11:35:37.976Z,11.67
2018-04-25T11:41:28.731Z,11.19
2018-04-25T11:47:19.713Z,9.65
2018-04-25T11:59:00.976Z,10.34
2018-04-25T12:04:52.506Z,13.96
2018-04-25T12:10:42.474Z,14.96
2018-04-25T12:16:33.317Z,10.29
2018-04-25T12:22:24.063Z,11.98
2018-04-25T12:28:14.764Z,10.91
2018-04-25T12:34:05.527Z,11.64
2018-04-25T12:39:57.248Z,11.26
2018-04-25T12:45:47.031Z,14.06
2018-04-25T12:51:37.845Z,19.09
2018-04-25T12:57:28.603Z,7.7
2018-04-25T13:05:10.892Z,12.67
2018-04-25T13:11:00.945Z,12.02
2018-04-25T13:16:51.559Z,16.68
2018-04-25T13:22:42.275Z,11.3
2018-04-25T13:28:33.056Z,8.85
2018-04-25T13:34:23.983Z,14.01
2018-04-25T13:40:14.695Z,12.75
2018-04-25T13:46:05.434Z,12.44
2018-04-25T13:51:56.148Z,9.36
2018-04-25T13:57:46.985Z,16.2
2018-04-25T14:03:40.138Z,12.65
2018-04-25T14:09:30.894Z,13.16
2018-04-25T14:15:21.650Z,13.26
2018-04-25T14:21:12.496Z,12.93
2018-04-25T14:27:03.213Z,13.66
2018-04-25T14:32:54.012Z,10.48
2018-04-25T14:38:44.721Z,12.1
2018-04-25T14:44:35.652Z,11.9
2018-04-25T14:50:26.286Z,12.4
2018-04-25T14:56:17.040Z,12.77
2018-04-25T15:02:07.832Z,8.5
2018-04-25T15:07:58.583Z,11.53
2018-04-25T15:13:49.379Z,14.34
2018-04-25T15:19:40.168Z,14.64
2018-04-25T15:25:30.934Z,12.27
2018-04-25T15:31:21.693Z,11.36
2018-04-25T15:37:12.391Z,10.43
2018-04-25T15:43:03.173Z,14.48
2018-04-25T15:48:53.956Z,15.77
2018-04-25T15:54:44.757Z,15.63
2018-04-25T16:00:35.515Z,12.76
2018-04-25T16:06:26.196Z,13.73
2018-04-25T16:12:17.046Z,16.21
2018-04-25T16:18:07.755Z,10.74
2018-04-25T16:23:58.563Z,15.65
2018-04-25T16:29:49.317Z,9.37
2018-04-25T16:35:40.047Z,12.97
2018-04-25T16:41:30.808Z,13.4
2018-04-25T16:47:21.532Z,15.51
2018-04-25T16:53:12.307Z,19.41
2018-04-25T16:59:03.104Z,22.84
2018-04-25T17:04:53.819Z,17.62
2018-04-25T17:10:44.536Z,15.22
2018-04-25T17:16:35.413Z,11.36
2018-04-25T17:22:26.129Z,10.9
2018-04-25T17:28:16.825Z,29
2018-04-25T17:37:21.696Z,12.89
2018-04-25T17:43:12.549Z,18.42
2018-04-25T17:49:03.280Z,16.78
2018-04-25T17:54:53.984Z,17
2018-04-25T18:00:44.746Z,16.4
2018-04-25T18:06:35.528Z,11.02
2018-04-25T18:12:26.228Z,10.55
2018-04-25T18:18:17.020Z,13.46
2018-04-25T18:24:07.824Z,14.35
2018-04-25T18:29:58.477Z,12.74
2018-04-25T18:35:49.320Z,9.33
2018-04-25T18:41:39.929Z,11.73
2018-04-25T18:47:30.694Z,11.29
2018-04-25T18:53:21.425Z,18.46
2018-04-25T18:59:12.167Z,14.08
2018-04-25T19:05:02.911Z,20.22
2018-04-25T19:10:53.847Z,16.88
2018-04-25T19:16:44.623Z,18.48
2018-04-25T19:22:35.044Z,15.75
2018-04-25T19:28:25.798Z,20.02
2018-04-25T19:34:16.533Z,52.63
2018-04-25T19:40:07.238Z,33.65
2018-04-25T19:45:57.973Z,21.13
2018-04-25T19:51:48.692Z,25.55
2018-04-25T19:57:39.406Z,37.82
2018-04-25T20:03:30.188Z,55.81
2018-04-25T20:09:20.846Z,20.68
2018-04-25T20:15:11.607Z,22.86
2018-04-25T20:21:02.353Z,16.5
2018-04-25T20:26:53.011Z,14.92
2018-04-25T20:32:43.726Z,21.28
2018-04-25T20:38:34.401Z,12.95
2018-04-25T20:44:25.159Z,14.99
2018-04-25T20:50:15.885Z,17.76
2018-04-25T20:56:06.561Z,16.18
2018-04-25T21:01:57.289Z,18.93
2018-04-25T21:07:47.973Z,18.82
2018-04-25T21:13:38.727Z,15.99
2018-04-25T21:19:29.416Z,14.02
2018-04-25T21:25:20.091Z,16.14
2018-04-25T21:31:10.781Z,20.66
2018-04-25T21:37:01.457Z,17.6
2018-04-25T21:42:52.173Z,17.74
2018-04-25T21:48:42.886Z,20.36
2018-04-25T21:54:33.527Z,14.59
2018-04-25T22:00:24.237Z,13.91
2018-04-25T22:06:14.953Z,14.66
2018-04-25T22:12:05.633Z,17.03
2018-04-25T22:17:56.552Z,22.89
2018-04-25T22:29:37.750Z,14.43
2018-04-25T22:35:28.458Z,18.15
2018-04-25T22:41:19.296Z,16.26
2018-04-25T22:47:09.840Z,16.1
2018-04-25T22:53:00.567Z,18.18
2018-04-25T22:58:51.205Z,19.21
2018-04-25T23:04:41.941Z,15.69
2018-04-25T23:10:32.607Z,23.15
2018-04-25T23:16:23.325Z,22.63
2018-04-25T23:22:13.966Z,14.51
2018-04-25T23:28:04.641Z,16.9
2018-04-25T23:33:55.336Z,18.86
2018-04-25T23:39:46.073Z,17.2
2018-04-25T23:45:36.736Z,18.97
2018-04-25T23:51:27.443Z,21.42
2018-04-25T23:57:18.112Z,18.55
